createdAt,value
2019-03-05T00:00:46.497Z,0.43
2019-03-05T00:03:15.966Z,0.50
2019-03-05T00:05:43.907Z,0.50
2019-03-05T00:08:11.403Z,0.50
2019-03-05T00:10:39.060Z,0.47
2019-03-05T00:13:11.518Z,0.63
2019-03-05T00:15:39.148Z,0.73
2019-03-05T00:18:06.834Z,0.50
2019-03-05T00:20:34.526Z,0.43
2019-03-05T00:23:03.422Z,0.40
2019-03-05T00:25:32.714Z,0.60
2019-03-05T00:28:05.810Z,0.50
2019-03-05T00:30:53.878Z,0.40
2019-03-05T00:34:01.544Z,0.40
2019-03-05T00:36:58.586Z,0.43
2019-03-05T00:40:01.574Z,0.47
2019-03-05T00:43:12.012Z,0.40
2019-03-05T00:46:34.660Z,0.50
2019-03-05T00:50:00.700Z,0.50
2019-03-05T00:53:02.111Z,0.50
2019-03-05T00:56:10.475Z,0.40
2019-03-05T00:59:18.427Z,0.47
2019-03-05T01:02:45.277Z,0.40
2019-03-05T01:05:35.459Z,0.50
2019-03-05T01:08:03.714Z,0.50
2019-03-05T01:10:31.620Z,0.47
2019-03-05T01:13:00.450Z,0.40
2019-03-05T01:15:29.329Z,0.53
2019-03-05T01:17:57.258Z,0.60
2019-03-05T01:20:27.337Z,0.50
2019-03-05T01:22:59.512Z,0.80
2019-03-05T01:25:31.259Z,0.77
2019-03-05T01:27:59.312Z,0.60
2019-03-05T01:30:36.951Z,0.50
2019-03-05T01:33:09.628Z,0.50
2019-03-05T01:35:48.493Z,0.50
2019-03-05T01:38:22.234Z,0.80
2019-03-05T01:41:01.560Z,0.70
2019-03-05T01:43:37.111Z,0.50
2019-03-05T01:46:08.101Z,0.60
2019-03-05T01:48:36.598Z,0.70
2019-03-05T01:51:10.348Z,0.60
2019-03-05T01:53:40.603Z,0.50
2019-03-05T01:56:14.313Z,0.70
2019-03-05T01:59:04.840Z,0.40
2019-03-05T02:01:40.741Z,0.57
2019-03-05T02:04:33.257Z,0.60
2019-03-05T02:07:13.317Z,0.60
2019-03-05T02:09:47.072Z,0.50
2019-03-05T02:12:17.882Z,0.33
2019-03-05T02:14:45.312Z,0.50
2019-03-05T02:17:13.691Z,0.63
2019-03-05T02:19:49.226Z,0.73
2019-03-05T02:22:40.180Z,0.60
2019-03-05T02:25:39.141Z,0.60
2019-03-05T02:29:03.940Z,0.60
2019-03-05T02:32:46.986Z,0.40
2019-03-05T02:35:44.245Z,0.47
2019-03-05T02:39:38.611Z,0.70
2019-03-05T02:42:43.566Z,0.77
2019-03-05T02:46:28.774Z,0.60
2019-03-05T02:50:14.533Z,0.80
2019-03-05T02:52:54.526Z,0.50
2019-03-05T02:56:07.936Z,0.40
2019-03-05T02:58:34.315Z,0.40
2019-03-05T03:01:13.053Z,0.50
2019-03-05T03:03:43.937Z,0.57
2019-03-05T03:06:15.428Z,0.53
2019-03-05T03:08:43.747Z,0.60
2019-03-05T03:11:11.369Z,0.50
2019-03-05T03:13:39.042Z,0.60
2019-03-05T03:16:06.724Z,0.60
2019-03-05T03:18:34.221Z,0.60
2019-03-05T03:21:02.017Z,0.57
2019-03-05T03:23:30.680Z,0.60
2019-03-05T03:25:58.300Z,0.63
2019-03-05T03:28:25.999Z,0.53
2019-03-05T03:30:53.887Z,0.50
2019-03-05T03:33:21.910Z,0.73
2019-03-05T03:35:53.107Z,0.50
2019-03-05T03:38:20.918Z,0.40
2019-03-05T03:40:49.729Z,0.70
2019-03-05T03:43:17.645Z,0.40
2019-03-05T03:45:45.616Z,0.70
2019-03-05T03:48:13.464Z,0.80
2019-03-05T03:50:41.315Z,0.67
2019-03-05T03:53:09.068Z,0.50
2019-03-05T05:54:01.475Z,0.50
2019-03-05T05:56:29.825Z,0.50
2019-03-05T05:58:58.995Z,0.47
2019-03-05T06:01:28.368Z,0.60
2019-03-05T06:03:56.519Z,0.33
2019-03-05T06:06:24.575Z,0.60
2019-03-05T06:08:53.110Z,0.40
2019-03-05T06:11:21.199Z,0.40
2019-03-05T06:13:49.282Z,0.50
2019-03-05T06:16:17.324Z,0.60
2019-03-05T06:18:46.621Z,0.37
2019-03-05T06:21:14.675Z,0.50
2019-03-05T06:23:42.748Z,0.63
2019-03-05T06:26:10.833Z,0.60
2019-03-05T06:28:38.909Z,0.47
2019-03-05T06:31:07.069Z,0.60
2019-03-05T06:33:36.353Z,0.70
2019-03-05T06:36:05.713Z,0.50
2019-03-05T06:38:35.493Z,0.60
2019-03-05T06:41:04.782Z,0.50
2019-03-05T06:43:38.892Z,0.67
2019-03-05T06:46:06.950Z,0.70
2019-03-05T06:48:35.013Z,0.57
2019-03-05T06:51:03.128Z,0.60
2019-03-05T06:53:31.229Z,0.50
2019-03-05T06:55:59.341Z,0.67
2019-03-05T06:58:27.431Z,0.63
2019-03-05T07:00:57.113Z,0.70
2019-03-05T07:03:25.136Z,0.60
2019-03-05T07:06:48.260Z,0.60
2019-03-05T07:10:21.718Z,0.57
2019-03-05T07:13:03.471Z,0.50
2019-03-05T07:16:36.989Z,0.63
2019-03-05T07:19:36.964Z,0.50
2019-03-05T07:22:56.159Z,0.40
2019-03-05T07:25:25.184Z,0.53
2019-03-05T07:27:57.051Z,0.40
2019-03-05T07:30:26.187Z,0.60
2019-03-05T07:32:56.421Z,0.60
2019-03-05T07:35:25.365Z,0.53
2019-03-05T07:37:53.656Z,0.57
2019-03-05T07:40:21.715Z,0.50
2019-03-05T07:42:51.072Z,0.77
2019-03-05T07:45:19.142Z,0.53
2019-03-05T07:47:47.211Z,0.60
2019-03-05T07:50:15.256Z,0.70
2019-03-05T07:52:43.417Z,0.67
2019-03-05T07:55:14.533Z,0.50
2019-03-05T07:57:42.752Z,0.60
2019-03-05T08:00:21.306Z,0.70
2019-03-05T08:02:49.380Z,0.60
2019-03-05T08:05:17.752Z,0.50
2019-03-05T08:07:46.269Z,0.47
2019-03-05T08:10:30.092Z,0.40
2019-03-05T08:13:23.259Z,0.50
2019-03-05T08:16:08.133Z,0.70
2019-03-05T08:18:36.173Z,0.50
2019-03-05T08:21:04.967Z,0.53
2019-03-05T08:23:34.577Z,0.50
2019-03-05T08:26:02.615Z,0.60
2019-03-05T08:28:30.715Z,0.50
2019-03-05T08:30:58.736Z,0.57
2019-03-05T08:33:28.877Z,0.60
2019-03-05T08:35:56.927Z,0.60
2019-03-05T08:38:25.125Z,0.67
2019-03-05T08:40:55.960Z,1.37
2019-03-05T08:43:24.178Z,0.70
2019-03-05T08:45:52.523Z,0.50
2019-03-05T08:48:20.638Z,0.80
2019-03-05T08:50:48.691Z,0.53
2019-03-05T08:53:16.777Z,0.43
2019-03-05T08:55:44.817Z,0.83
2019-03-05T08:58:12.962Z,0.80
2019-03-05T09:00:41.000Z,0.60
2019-03-05T09:03:09.215Z,0.60
2019-03-05T09:05:37.396Z,0.80
2019-03-05T09:08:05.551Z,0.60
2019-03-05T09:10:34.375Z,0.80
2019-03-05T09:13:04.222Z,0.70
2019-03-05T09:15:32.289Z,0.70
2019-03-05T09:18:00.701Z,0.70
2019-03-05T09:20:30.484Z,0.77
2019-03-05T09:22:58.506Z,0.70
2019-03-05T09:25:26.559Z,0.70
2019-03-05T09:27:55.854Z,0.50
2019-03-05T09:30:24.049Z,0.90
2019-03-05T09:32:52.186Z,0.70
2019-03-05T09:35:20.260Z,0.63
2019-03-05T09:37:48.284Z,0.50
2019-03-05T09:40:19.004Z,0.50
2019-03-05T09:42:47.259Z,0.40
2019-03-05T09:45:16.709Z,0.53
2019-03-05T09:47:44.785Z,0.50
2019-03-05T09:50:14.910Z,0.60
2019-03-05T09:52:54.399Z,0.70
2019-03-05T09:55:18.105Z,0.60
2019-03-05T09:57:48.419Z,0.70
2019-03-05T10:00:18.265Z,1.07
2019-03-05T10:02:46.440Z,0.60
2019-03-05T10:05:15.354Z,0.90
2019-03-05T10:07:44.007Z,0.70
2019-03-05T10:10:16.061Z,0.77
2019-03-05T10:12:44.251Z,0.80
2019-03-05T10:15:15.932Z,0.60
2019-03-05T10:17:43.981Z,0.90
2019-03-05T10:20:15.635Z,0.80
2019-03-05T10:22:44.833Z,0.60
2019-03-05T10:25:15.817Z,0.60
2019-03-05T10:27:44.161Z,1.00
2019-03-05T10:30:25.412Z,0.60
2019-03-05T10:32:55.123Z,0.50
2019-03-05T10:35:25.418Z,0.90
2019-03-05T10:37:56.053Z,0.50
2019-03-05T10:40:27.447Z,0.83
2019-03-05T10:42:55.716Z,0.60
2019-03-05T10:45:24.921Z,0.70
2019-03-05T10:47:53.367Z,0.67
2019-03-05T10:50:24.392Z,0.50
2019-03-05T10:52:52.482Z,0.70
2019-03-05T10:55:26.278Z,0.60
2019-03-05T10:57:50.786Z,0.70
2019-03-05T11:00:28.598Z,0.67
2019-03-05T11:02:57.042Z,0.50
2019-03-05T11:05:27.925Z,0.40
2019-03-05T11:07:57.469Z,0.67
2019-03-05T11:10:28.145Z,0.80
2019-03-05T11:12:56.646Z,0.57
2019-03-05T11:15:27.642Z,0.60
2019-03-05T11:17:56.289Z,0.60
2019-03-05T11:20:25.043Z,0.60
2019-03-05T11:22:53.212Z,0.70
2019-03-05T11:25:22.796Z,0.43
2019-03-05T11:27:50.868Z,0.73
2019-03-05T11:30:35.369Z,0.50
2019-03-05T11:32:56.087Z,0.53
2019-03-05T11:35:26.845Z,0.60
2019-03-05T11:37:54.971Z,0.57
2019-03-05T11:40:23.295Z,0.43
2019-03-05T11:42:53.370Z,0.40
2019-03-05T11:45:24.274Z,0.40
2019-03-05T11:47:52.380Z,0.40
2019-03-05T11:50:21.023Z,0.50
2019-03-05T11:52:49.331Z,0.30
2019-03-05T11:55:19.704Z,0.63
2019-03-05T11:57:47.766Z,0.57
2019-03-05T12:00:23.707Z,0.50
2019-03-05T12:02:52.889Z,0.40
2019-03-05T12:05:22.072Z,0.47
2019-03-05T12:07:50.313Z,0.30
2019-03-05T12:10:19.306Z,0.50
2019-03-05T12:12:52.776Z,0.40
2019-03-05T12:15:21.009Z,0.43
2019-03-05T12:17:49.486Z,0.40
2019-03-05T12:20:17.548Z,0.30
2019-03-05T12:22:45.689Z,0.40
2019-03-05T12:25:15.413Z,0.30
2019-03-05T12:27:43.451Z,0.33
2019-03-05T12:30:18.268Z,0.40
2019-03-05T12:32:46.329Z,0.43
2019-03-05T12:35:14.507Z,0.70
2019-03-05T12:38:00.100Z,0.50
2019-03-05T12:40:28.380Z,0.40
2019-03-05T12:42:57.590Z,0.37
2019-03-05T12:45:25.651Z,0.57
2019-03-05T12:47:53.713Z,0.70
2019-03-05T12:50:22.200Z,0.60
2019-03-05T12:52:50.687Z,0.90
2019-03-05T12:55:20.565Z,0.90
2019-03-05T12:57:50.457Z,0.50
2019-03-05T13:00:20.405Z,0.50
2019-03-05T13:02:49.173Z,0.50
2019-03-05T13:05:17.869Z,0.73
2019-03-05T13:07:46.038Z,0.70
2019-03-05T13:10:19.800Z,0.40
2019-03-05T13:12:47.836Z,0.50
2019-03-05T13:15:22.718Z,0.60
2019-03-05T13:17:51.549Z,0.50
2019-03-05T13:20:22.498Z,0.60
2019-03-05T13:22:52.236Z,0.37
2019-03-05T13:25:24.219Z,0.40
2019-03-05T13:27:51.374Z,0.40
2019-03-05T13:30:22.099Z,0.50
2019-03-05T13:32:53.970Z,0.50
2019-03-05T13:35:25.329Z,0.40
2019-03-05T13:37:52.348Z,0.70
2019-03-05T13:40:25.257Z,0.80
2019-03-05T13:42:53.779Z,0.70
2019-03-05T13:45:23.880Z,0.80
2019-03-05T13:48:03.407Z,0.70
2019-03-05T13:51:19.607Z,0.47
2019-03-05T13:54:25.671Z,0.40
2019-03-05T13:58:16.844Z,0.33
2019-03-05T14:00:44.929Z,0.50
2019-03-05T14:03:43.745Z,0.30
2019-03-05T14:07:00.854Z,0.57
2019-03-05T14:09:27.476Z,0.50
2019-03-05T14:11:55.549Z,0.40
2019-03-05T14:14:28.868Z,0.40
2019-03-05T14:17:17.290Z,0.50
2019-03-05T14:19:45.528Z,0.73
2019-03-05T14:22:15.321Z,0.60
2019-03-05T14:24:43.330Z,0.50
2019-03-05T14:27:11.387Z,0.60
2019-03-05T14:29:39.515Z,0.60
2019-03-05T14:32:08.317Z,0.60
2019-03-05T14:34:36.515Z,0.30
2019-03-05T14:37:04.996Z,0.53
2019-03-05T14:39:34.687Z,0.60
2019-03-05T14:42:06.271Z,0.37
2019-03-05T14:44:39.785Z,0.50
2019-03-05T14:47:05.630Z,0.50
2019-03-05T14:49:34.414Z,0.30
2019-03-05T14:52:03.337Z,0.53
2019-03-05T14:54:31.470Z,0.47
2019-03-05T14:57:00.670Z,0.50
2019-03-05T14:59:29.118Z,0.40
2019-03-05T15:01:58.644Z,0.70
2019-03-05T15:04:26.700Z,0.57
2019-03-05T15:06:54.789Z,0.40
2019-03-05T15:09:22.851Z,0.57
2019-03-05T15:11:50.911Z,0.40
2019-03-05T15:14:19.484Z,0.70
2019-03-05T15:16:47.672Z,0.57
2019-03-05T15:19:21.313Z,0.70
2019-03-05T15:21:46.126Z,1.00
2019-03-05T15:24:14.313Z,0.60
2019-03-05T15:26:42.539Z,0.60
2019-03-05T15:29:10.636Z,0.50
2019-03-05T15:31:38.795Z,0.63
2019-03-05T15:34:07.617Z,0.60
2019-03-05T15:36:35.839Z,0.60
2019-03-05T15:39:05.333Z,0.67
2019-03-05T15:41:35.388Z,0.60
2019-03-05T15:44:03.777Z,0.70
2019-03-05T15:46:32.579Z,0.43
2019-03-05T15:49:01.041Z,0.40
2019-03-05T15:51:29.504Z,0.57
2019-03-05T15:53:58.410Z,0.40
2019-03-05T15:56:26.645Z,0.47
2019-03-05T15:58:54.953Z,0.50
2019-03-05T16:01:23.116Z,0.60
2019-03-05T16:03:52.557Z,0.40
2019-03-05T16:06:20.717Z,0.60
2019-03-05T16:08:49.110Z,0.60
2019-03-05T16:11:17.295Z,0.60
2019-03-05T16:13:47.430Z,0.57
2019-03-05T16:16:18.343Z,0.60
2019-03-05T16:18:45.743Z,0.50
2019-03-05T16:21:13.792Z,0.50
2019-03-05T16:23:41.872Z,0.60
2019-03-05T16:26:10.026Z,0.50
2019-03-05T16:28:39.302Z,0.43
2019-03-05T16:31:27.115Z,0.50
2019-03-05T16:34:02.017Z,0.40
2019-03-05T16:36:40.786Z,0.43
2019-03-05T16:39:42.233Z,0.40
2019-03-05T16:42:39.190Z,0.50
2019-03-05T16:45:23.480Z,0.40
2019-03-05T16:48:23.540Z,0.60
2019-03-05T16:51:09.214Z,0.63
2019-03-05T16:54:03.003Z,0.60
2019-03-05T16:56:46.956Z,0.67
2019-03-05T16:59:49.743Z,0.67
2019-03-05T17:02:40.737Z,0.53
2019-03-05T17:05:25.818Z,0.50
2019-03-05T17:08:19.089Z,0.67
2019-03-05T17:11:13.053Z,0.67
2019-03-05T17:13:41.428Z,0.60
2019-03-05T17:16:09.698Z,0.83
2019-03-05T17:18:38.616Z,0.50
2019-03-05T17:21:06.793Z,0.50
2019-03-05T17:23:37.606Z,0.50
2019-03-05T17:26:06.098Z,0.50
2019-03-05T17:28:35.273Z,0.50
2019-03-05T17:31:03.553Z,0.40
2019-03-05T17:33:33.015Z,0.50
2019-03-05T17:36:02.325Z,0.53
2019-03-05T17:38:30.896Z,0.60
2019-03-05T17:40:59.121Z,0.90
2019-03-05T17:43:27.249Z,0.80
2019-03-05T17:45:55.881Z,0.77
2019-03-05T17:48:24.467Z,0.70
2019-03-05T17:50:53.814Z,1.03
2019-03-05T17:53:23.136Z,0.77
2019-03-05T17:55:51.656Z,0.77
2019-03-05T17:58:20.106Z,0.60
2019-03-05T18:00:48.685Z,0.90
2019-03-05T18:03:16.988Z,0.70
2019-03-05T18:05:45.170Z,0.50
2019-03-05T18:08:13.635Z,0.60
2019-03-05T18:10:41.760Z,0.47
2019-03-05T18:13:10.065Z,0.73
2019-03-05T18:15:39.339Z,0.70
2019-03-05T18:18:07.428Z,0.80
2019-03-05T18:20:35.908Z,0.80
2019-03-05T18:23:04.130Z,0.90
2019-03-05T18:25:35.232Z,0.80
2019-03-05T18:28:03.595Z,0.90
2019-03-05T18:30:31.677Z,0.80
2019-03-05T18:33:00.007Z,0.97
2019-03-05T18:35:28.508Z,0.90
2019-03-05T18:37:56.689Z,0.83
2019-03-05T18:40:25.058Z,1.03
2019-03-05T18:42:53.240Z,0.97
2019-03-05T18:45:23.509Z,1.40
2019-03-05T18:47:51.633Z,1.33
2019-03-05T18:50:20.145Z,1.00
2019-03-05T18:52:49.643Z,1.33
2019-03-05T18:55:18.874Z,1.20
2019-03-05T18:57:47.107Z,1.00
2019-03-05T19:00:18.696Z,1.13
2019-03-05T19:02:46.799Z,1.00
2019-03-05T19:05:16.122Z,0.87
2019-03-05T19:07:46.858Z,1.10
2019-03-05T19:10:16.826Z,1.03
2019-03-05T19:12:44.864Z,1.13
2019-03-05T19:15:17.136Z,1.10
2019-03-05T19:17:47.093Z,0.93
2019-03-05T19:20:18.313Z,0.93
2019-03-05T19:22:47.351Z,1.03
2019-03-05T19:25:18.800Z,1.00
2019-03-05T19:27:48.652Z,1.07
2019-03-05T19:30:20.666Z,1.10
2019-03-05T19:32:50.264Z,1.20
2019-03-05T19:35:18.562Z,1.00
2019-03-05T19:37:47.658Z,1.10
2019-03-05T19:40:19.265Z,1.10
2019-03-05T19:42:47.721Z,0.73
2019-03-05T19:45:15.944Z,0.80
2019-03-05T19:47:44.337Z,1.07
2019-03-05T19:50:14.948Z,1.00
2019-03-05T19:52:43.413Z,0.80
2019-03-05T19:55:14.323Z,1.00
2019-03-05T19:57:42.375Z,0.80
2019-03-05T20:00:25.758Z,0.90
2019-03-05T20:02:54.332Z,1.10
2019-03-05T20:05:22.828Z,0.87
2019-03-05T20:07:50.794Z,0.90
2019-03-05T20:10:19.952Z,1.00
2019-03-05T20:12:49.113Z,1.00
2019-03-05T20:15:17.206Z,0.90
2019-03-05T20:17:45.907Z,0.87
2019-03-05T20:20:15.630Z,0.83
2019-03-05T20:22:44.225Z,0.90
2019-03-05T20:25:15.412Z,0.90
2019-03-05T20:27:43.562Z,0.77
2019-03-05T20:30:16.118Z,0.90
2019-03-05T20:32:46.310Z,0.80
2019-03-05T20:35:15.035Z,0.90
2019-03-05T20:37:43.753Z,0.90
2019-03-05T20:40:14.335Z,0.87
2019-03-05T20:42:43.091Z,0.97
2019-03-05T20:45:15.751Z,0.97
2019-03-05T20:47:43.919Z,1.20
2019-03-05T20:50:12.823Z,1.07
2019-03-05T20:52:40.994Z,1.07
2019-03-05T20:55:12.221Z,1.10
2019-03-05T20:57:40.522Z,1.00
2019-03-05T21:00:21.963Z,1.30
2019-03-05T21:02:51.545Z,0.93
2019-03-05T21:05:21.009Z,1.23
2019-03-05T21:07:49.051Z,1.17
2019-03-05T21:10:17.325Z,1.30
2019-03-05T21:12:47.492Z,1.00
2019-03-05T21:15:15.905Z,1.23
2019-03-05T21:17:45.343Z,1.07
2019-03-05T21:20:14.062Z,1.50
2019-03-05T21:22:43.484Z,1.30
2019-03-05T21:25:12.420Z,1.33
2019-03-05T21:27:41.449Z,1.40
2019-03-05T21:30:13.798Z,1.40
2019-03-05T21:32:42.389Z,1.47
2019-03-05T21:35:10.935Z,1.10
2019-03-05T21:37:40.948Z,1.13
2019-03-05T21:40:16.386Z,1.27
2019-03-05T21:42:44.900Z,1.40
2019-03-05T21:45:17.169Z,1.20
2019-03-05T21:47:45.459Z,1.30
2019-03-05T21:50:14.481Z,1.40
2019-03-05T21:52:42.548Z,1.40
2019-03-05T21:55:13.107Z,1.17
2019-03-05T21:57:41.640Z,1.33
2019-03-05T22:00:14.373Z,1.20
2019-03-05T22:02:44.326Z,1.10
2019-03-05T22:05:14.138Z,0.97
2019-03-05T22:07:42.393Z,1.20
2019-03-05T22:10:14.155Z,1.00
2019-03-05T22:12:43.402Z,1.00
2019-03-05T22:15:13.962Z,1.23
2019-03-05T22:17:42.077Z,1.10
2019-03-05T22:20:13.648Z,1.07
2019-03-05T22:22:41.697Z,1.00
2019-03-05T22:25:12.406Z,1.00
2019-03-05T22:27:40.861Z,1.30
2019-03-05T22:30:16.356Z,1.23
2019-03-05T22:32:44.695Z,1.47
2019-03-05T22:35:15.086Z,1.00
2019-03-05T22:37:43.237Z,0.87
2019-03-05T22:40:11.900Z,1.20
2019-03-05T22:42:40.095Z,0.90
2019-03-05T22:45:12.734Z,0.90
2019-03-05T22:47:40.807Z,1.10
2019-03-05T22:50:09.593Z,0.80
2019-03-05T22:52:38.967Z,1.00
2019-03-05T22:55:07.896Z,1.00
2019-03-05T22:57:37.128Z,0.90
2019-03-05T23:00:11.744Z,0.90
2019-03-05T23:02:40.459Z,1.03
2019-03-05T23:05:09.620Z,1.10
2019-03-05T23:07:39.957Z,1.10
2019-03-05T23:10:11.247Z,1.03
2019-03-05T23:12:39.642Z,0.70
2019-03-05T23:15:09.053Z,1.00
2019-03-05T23:17:37.974Z,1.00
2019-03-05T23:20:07.224Z,1.00
2019-03-05T23:22:35.514Z,1.20
2019-03-05T23:25:04.394Z,1.03
2019-03-05T23:27:35.839Z,1.00
2019-03-05T23:30:07.992Z,1.00
2019-03-05T23:32:37.570Z,1.10
2019-03-05T23:35:07.431Z,1.00
2019-03-05T23:37:36.957Z,1.00
2019-03-05T23:40:05.266Z,1.00
2019-03-05T23:42:33.638Z,1.00
2019-03-05T23:45:01.688Z,1.03
2019-03-05T23:47:30.109Z,1.00
2019-03-05T23:49:58.165Z,1.03
2019-03-05T23:52:26.351Z,1.10
2019-03-05T23:54:54.754Z,0.93
2019-03-05T23:57:23.186Z,0.90
2019-03-05T23:59:52.768Z,1.23
